createdAt,value
2022-10-23T00:09:27.374Z,101238.88
2022-10-23T00:19:30.039Z,101242.31
2022-10-23T00:29:34.200Z,101232.84
2022-10-23T00:39:37.001Z,101241.47
2022-10-23T00:49:42.793Z,101231.97
2022-10-23T00:59:45.767Z,101238.00
2022-10-23T01:09:53.890Z,101224.19
2022-10-23T01:20:02.784Z,101218.16
2022-10-23T01:30:08.546Z,101212.16
2022-10-23T01:40:20.016Z,101202.69
2022-10-23T01:50:28.359Z,101188.06
2022-10-23T02:00:40.051Z,101196.63
2022-10-23T02:10:50.442Z,101194.06
2022-10-23T02:20:56.361Z,101188.88
2022-10-23T02:31:00.743Z,101175.94
2022-10-23T02:41:11.490Z,101163.00
2022-10-23T02:51:19.137Z,101123.31
2022-10-23T03:01:24.183Z,101106.06
2022-10-23T03:11:28.622Z,101088.78
2022-10-23T03:21:31.698Z,101077.53
2022-10-23T03:31:36.002Z,101074.09
2022-10-23T03:41:38.876Z,101062.00
2022-10-23T03:51:44.102Z,101051.63
2022-10-23T04:01:47.177Z,101045.59
2022-10-23T04:11:51.538Z,101016.22
2022-10-23T04:21:54.408Z,101013.63
2022-10-23T04:31:58.518Z,101022.25
2022-10-23T04:42:01.249Z,101010.16
2022-10-23T04:52:05.517Z,101003.28
2022-10-23T05:02:14.121Z,101000.66
2022-10-23T05:12:19.173Z,100996.31
2022-10-23T05:22:26.606Z,100989.41
2022-10-23T05:32:32.294Z,100976.44
2022-10-23T05:42:37.178Z,100968.63
2022-10-23T05:52:46.970Z,100962.56
2022-10-23T06:03:21.842Z,100954.78
2022-10-23T06:13:26.175Z,100945.25
2022-10-23T06:23:29.054Z,100934.91
2022-10-23T06:33:51.643Z,100923.59
2022-10-23T06:43:54.838Z,100903.63
2022-10-23T06:54:18.774Z,100895.78
2022-10-23T07:04:41.608Z,100879.25
2022-10-23T07:14:53.200Z,100881.63
2022-10-23T07:24:57.444Z,100863.28
2022-10-23T07:35:06.199Z,100850.06
2022-10-23T07:45:11.496Z,100845.47
2022-10-23T07:55:19.361Z,100833.13
2022-10-23T08:05:26.207Z,100832.78
2022-10-23T08:15:35.662Z,100825.53
2022-10-23T08:25:48.090Z,100814.75
2022-10-23T08:35:54.219Z,100805.78
2022-10-23T08:46:08.619Z,100785.94
2022-10-23T08:56:38.637Z,100781.34
2022-10-23T09:06:43.738Z,100769.94
2022-10-23T09:16:56.159Z,100744.44
2022-10-23T09:27:00.601Z,100728.38
2022-10-23T09:37:05.945Z,100710.72
2022-10-23T09:47:11.314Z,100705.41
2022-10-23T09:57:28.482Z,100699.88
2022-10-23T10:07:34.664Z,100671.72
2022-10-23T10:17:45.157Z,100652.53
2022-10-23T10:27:53.772Z,100637.31
2022-10-23T10:38:11.854Z,100633.97
2022-10-23T10:48:21.761Z,100618.00
2022-10-23T10:58:51.725Z,100601.97
2022-10-23T11:08:58.035Z,100597.50
2022-10-23T11:19:14.095Z,100582.09
2022-10-23T11:29:23.903Z,100571.53
2022-10-23T11:45:22.511Z,100535.41
2022-10-23T11:55:30.038Z,60797.03
2022-10-23T12:05:37.832Z,60797.03
2022-10-23T12:15:42.106Z,60797.03
2022-10-23T12:26:00.754Z,60797.03
2022-10-23T12:36:22.122Z,60797.03
2022-10-23T12:46:35.201Z,60797.03
2022-10-23T12:56:42.219Z,60797.03
2022-10-23T13:06:45.859Z,60797.03
2022-10-23T13:17:00.342Z,60797.03
2022-10-23T13:27:04.016Z,60797.03
2022-10-23T13:37:25.848Z,60797.03
2022-10-23T13:47:29.006Z,60797.03
2022-10-23T13:57:36.689Z,60797.03
2022-10-23T14:07:40.056Z,60797.03
2022-10-23T14:17:44.885Z,60797.03
2022-10-23T14:27:47.997Z,60797.03
2022-10-23T14:37:52.489Z,60797.03
2022-10-23T14:47:55.428Z,60797.03
2022-10-23T14:57:59.883Z,60797.03
2022-10-23T15:08:02.826Z,60797.03
2022-10-23T15:18:07.475Z,60797.03
2022-10-23T15:28:10.986Z,60797.03
2022-10-23T15:38:16.348Z,60797.03
2022-10-23T15:48:19.514Z,60797.03
2022-10-23T15:58:23.901Z,60797.03
2022-10-23T16:08:26.922Z,60797.03
2022-10-23T16:18:31.201Z,60797.03
2022-10-23T16:28:34.126Z,60797.03
2022-10-23T16:38:39.165Z,60797.03
2022-10-23T16:48:42.706Z,60797.03
2022-10-23T16:58:47.089Z,60797.03
2022-10-23T17:08:49.882Z,60797.03
2022-10-23T17:18:54.305Z,60797.03
2022-10-23T17:28:57.969Z,60797.03
2022-10-23T17:39:02.719Z,60797.03
2022-10-23T17:49:06.235Z,60797.03
2022-10-23T17:59:13.946Z,60797.03
2022-10-23T18:09:17.665Z,60797.03
2022-10-23T18:19:22.177Z,60797.03
2022-10-23T18:29:24.972Z,60797.03
2022-10-23T18:39:29.701Z,60797.03
2022-10-23T18:49:32.657Z,60797.03
2022-10-23T18:59:37.038Z,60797.03
2022-10-23T19:09:42.524Z,60797.03
2022-10-23T19:19:49.870Z,60797.03
2022-10-23T19:29:54.202Z,60797.03
2022-10-23T19:39:58.546Z,60797.03
2022-10-23T19:50:01.477Z,60797.03
2022-10-23T20:00:08.323Z,60797.03
2022-10-23T20:10:13.787Z,60797.03
2022-10-23T20:20:20.370Z,60797.03
2022-10-23T20:30:23.381Z,60797.03
2022-10-23T20:40:27.759Z,60797.03
2022-10-23T20:50:30.709Z,60797.03
2022-10-23T21:00:35.073Z,60797.03
2022-10-23T21:10:37.961Z,60797.03
2022-10-23T21:20:42.593Z,60797.03
2022-10-23T21:30:45.560Z,60797.03
2022-10-23T21:40:50.154Z,60797.03
2022-10-23T21:50:58.206Z,60797.03
2022-10-23T22:01:02.915Z,60797.03
2022-10-23T22:11:06.095Z,60797.03
2022-10-23T22:21:12.518Z,60797.03
2022-10-23T22:31:16.953Z,60797.03
2022-10-23T22:41:21.391Z,60797.03
2022-10-23T22:51:27.266Z,60797.03
2022-10-23T23:01:33.693Z,60797.03
2022-10-23T23:11:45.766Z,60797.03
2022-10-23T23:21:58.273Z,60797.03
2022-10-23T23:32:01.246Z,60797.03
2022-10-23T23:42:05.622Z,60797.03
2022-10-23T23:52:08.559Z,60797.03
